Time;durP1;ratioP1;P1;durP2;ratioP2;P2;SDS_P1;SDS_P2;PMS_P1;PMS_P2;Temp;Humidity;BMP_temperature;BMP_pressure;BME280_temperature;BME280_humidity;BME280_pressure;Samples;Min_cycle;Max_cycle;Signal;HPM_P1;HPM_P2
2021/12/30 00:00:25;;;;;;;41.75;36.80;;;9.90;99.90;;;;;;4894722;29;20037;-76
2021/12/30 00:02:51;;;;;;;29.48;26.23;;;9.80;99.90;;;;;;4953025;29;20047;-75
2021/12/30 00:05:17;;;;;;;40.90;33.67;;;9.80;99.90;;;;;;4953779;29;20392;-75
2021/12/30 00:07:43;;;;;;;25.42;22.92;;;9.80;99.90;;;;;;4954337;29;20038;-75
2021/12/30 00:10:10;;;;;;;24.30;22.02;;;9.70;99.90;;;;;;4953461;29;20035;-75
2021/12/30 00:12:37;;;;;;;22.98;21.10;;;9.70;99.90;;;;;;4953922;28;20031;-76
2021/12/30 00:15:06;;;;;;;23.52;21.30;;;9.70;99.90;;;;;;4954147;29;20452;-75
2021/12/30 00:17:33;;;;;;;18.65;17.13;;;9.80;99.90;;;;;;4920810;29;20058;-76
2021/12/30 00:20:00;;;;;;;17.20;15.80;;;9.90;99.90;;;;;;4954146;29;20050;-76
2021/12/30 00:22:28;;;;;;;13.60;12.35;;;10.00;99.90;;;;;;4953596;29;20476;-76
2021/12/30 00:24:55;;;;;;;10.77;9.88;;;10.10;99.90;;;;;;4953787;29;20031;-76
2021/12/30 00:27:21;;;;;;;10.93;9.93;;;10.60;99.90;;;;;;4953517;29;20094;-76
2021/12/30 00:29:47;;;;;;;9.15;8.35;;;11.20;99.90;;;;;;4936519;29;20385;-76
2021/12/30 00:32:13;;;;;;;10.10;9.07;;;11.40;99.90;;;;;;4953611;29;20035;-75
2021/12/30 00:34:39;;;;;;;18.45;9.50;;;11.60;99.90;;;;;;4953746;29;20046;-76
2021/12/30 00:37:06;;;;;;;9.88;8.82;;;11.60;99.90;;;;;;4953740;29;20098;-76
2021/12/30 00:39:32;;;;;;;10.65;8.23;;;11.80;99.90;;;;;;4935688;29;20044;-76
2021/12/30 00:41:58;;;;;;;7.55;6.93;;;11.90;99.90;;;;;;4953924;29;20032;-76
2021/12/30 00:44:24;;;;;;;9.50;6.68;;;11.80;99.90;;;;;;4953261;29;20031;-76
2021/12/30 00:46:51;;;;;;;5.47;4.50;;;11.70;99.90;;;;;;4954060;29;20350;-76
2021/12/30 00:49:17;;;;;;;7.82;4.00;;;11.80;99.90;;;;;;4932523;29;20048;-76
2021/12/30 00:51:43;;;;;;;6.85;2.58;;;11.80;99.90;;;;;;4934905;29;20040;-75
2021/12/30 00:54:10;;;;;;;10.50;4.35;;;12.00;99.90;;;;;;4934779;29;20040;-75
2021/12/30 00:56:36;;;;;;;10.80;2.88;;;12.10;99.90;;;;;;4934612;29;20048;-75
2021/12/30 00:59:02;;;;;;;3.17;2.40;;;12.20;99.90;;;;;;4934601;29;20046;-75
2021/12/30 01:01:29;;;;;;;4.40;2.33;;;12.10;99.90;;;;;;4933920;29;20036;-75
2021/12/30 01:03:55;;;;;;;4.00;2.15;;;12.00;99.90;;;;;;4934376;29;20038;-75
2021/12/30 01:06:21;;;;;;;4.93;2.03;;;12.00;99.90;;;;;;4934249;29;20040;-76
2021/12/30 01:08:47;;;;;;;4.45;2.08;;;12.10;99.90;;;;;;4934520;29;20388;-76
2021/12/30 01:11:14;;;;;;;3.53;1.77;;;12.10;99.90;;;;;;4934180;29;20036;-76
2021/12/30 01:13:42;;;;;;;4.78;1.63;;;12.00;99.90;;;;;;4934541;29;20039;-76
2021/12/30 01:16:18;;;;;;;4.63;1.65;;;11.90;99.90;;;;;;4934541;29;20046;-76
2021/12/30 01:21:32;;;;;;;3.20;1.90;;;11.70;99.90;;;;;;4933795;29;20034;-77
2021/12/30 01:24:00;;;;;;;5.28;1.85;;;11.60;99.90;;;;;;4934593;29;20453;-77
2021/12/30 01:26:27;;;;;;;4.22;2.17;;;11.60;99.90;;;;;;4937652;29;20047;-77
2021/12/30 01:28:53;;;;;;;7.55;1.90;;;11.50;99.90;;;;;;4937498;29;20054;-77
2021/12/30 01:31:20;;;;;;;5.97;1.83;;;11.60;99.90;;;;;;4937515;29;20032;-76
2021/12/30 01:33:47;;;;;;;3.63;2.03;;;11.60;99.90;;;;;;4938131;29;20036;-77
2021/12/30 01:36:14;;;;;;;4.68;1.77;;;11.70;99.90;;;;;;4937720;29;20042;-76
2021/12/30 01:38:41;;;;;;;7.95;2.25;;;11.80;99.90;;;;;;4938004;29;20097;-78
2021/12/30 01:41:09;;;;;;;5.93;1.92;;;12.00;99.90;;;;;;4937855;29;20058;-76
2021/12/30 01:43:36;;;;;;;3.10;1.23;;;12.10;99.90;;;;;;4937351;29;20462;-76
2021/12/30 01:46:08;;;;;;;9.52;2.53;;;12.00;99.90;;;;;;4937641;29;20366;-78
2021/12/30 01:48:35;;;;;;;5.65;1.52;;;11.90;99.90;;;;;;4936951;29;20460;-77
2021/12/30 01:51:02;;;;;;;3.90;2.35;;;12.00;99.90;;;;;;4955708;29;20047;-77
2021/12/30 01:53:29;;;;;;;9.10;1.92;;;11.90;99.90;;;;;;4956112;29;20039;-77
2021/12/30 01:55:55;;;;;;;4.68;1.75;;;11.80;99.90;;;;;;4956735;29;20035;-76
2021/12/30 01:58:23;;;;;;;4.63;1.85;;;11.90;99.90;;;;;;4956002;29;20130;-76
2021/12/30 02:00:50;;;;;;;4.85;2.25;;;11.90;99.90;;;;;;4956692;29;20489;-78
2021/12/30 02:03:18;;;;;;;3.40;1.65;;;12.00;99.90;;;;;;4956003;29;20039;-77
2021/12/30 02:05:45;;;;;;;7.25;1.98;;;12.00;99.90;;;;;;4956369;29;20042;-76
2021/12/30 02:08:15;;;;;;;2.55;1.80;;;11.80;99.90;;;;;;4956697;29;20039;-78
2021/12/30 02:10:43;;;;;;;6.35;2.38;;;11.70;99.90;;;;;;4956558;29;20027;-77
2021/12/30 02:13:11;;;;;;;5.85;2.30;;;11.80;99.90;;;;;;4956321;29;20488;-78
2021/12/30 02:15:37;;;;;;;3.75;1.67;;;11.80;99.90;;;;;;4938578;29;20031;-78
2021/12/30 02:18:04;;;;;;;9.15;1.75;;;11.60;99.90;;;;;;4956242;29;20051;-79
2021/12/30 02:20:47;;;;;;;4.38;1.50;;;11.50;99.90;;;;;;4955970;29;20389;-79
2021/12/30 02:23:24;;;;;;;3.20;1.35;;;11.40;99.90;;;;;;4959745;29;20039;-78
2021/12/30 02:25:53;;;;;;;2.72;1.73;;;11.30;99.90;;;;;;4965070;29;20051;-78
2021/12/30 02:28:23;;;;;;;2.92;1.95;;;11.20;99.90;;;;;;4958448;29;20040;-77
2021/12/30 02:30:50;;;;;;;8.32;2.05;;;11.20;99.90;;;;;;4938805;29;20055;-78
2021/12/30 02:33:17;;;;;;;7.63;2.75;;;11.10;99.90;;;;;;4956051;29;20046;-77
2021/12/30 02:35:43;;;;;;;4.25;1.67;;;11.20;99.90;;;;;;4955412;28;20035;-78
2021/12/30 02:38:10;;;;;;;10.43;2.40;;;11.20;99.90;;;;;;4955957;29;20039;-77
2021/12/30 02:40:41;;;;;;;5.78;1.77;;;11.50;99.90;;;;;;4955436;29;20042;-77
2021/12/30 02:43:14;;;;;;;5.13;2.40;;;11.70;99.90;;;;;;4938946;29;20483;-77
2021/12/30 02:45:40;;;;;;;3.15;1.85;;;11.80;99.90;;;;;;4954415;29;20044;-78
2021/12/30 02:48:13;;;;;;;4.15;1.90;;;11.90;99.90;;;;;;4955624;29;20388;-77
2021/12/30 02:50:39;;;;;;;4.05;2.10;;;12.00;99.90;;;;;;4958349;29;20047;-77
2021/12/30 02:53:05;;;;;;;5.38;2.05;;;12.10;99.90;;;;;;4956663;29;20058;-77
2021/12/30 02:55:32;;;;;;;4.72;2.35;;;12.00;99.90;;;;;;4955181;29;20035;-77
2021/12/30 02:57:58;;;;;;;5.78;1.98;;;12.00;99.90;;;;;;4955678;29;20038;-77
2021/12/30 03:00:24;;;;;;;4.28;2.20;;;12.00;99.90;;;;;;4955059;29;20042;-77
2021/12/30 03:02:50;;;;;;;3.10;1.70;;;12.10;99.90;;;;;;4955363;29;20035;-77
2021/12/30 03:05:22;;;;;;;4.03;1.73;;;12.10;99.90;;;;;;4955584;29;20054;-76
2021/12/30 03:07:48;;;;;;;5.93;2.50;;;12.00;99.90;;;;;;4955592;29;20039;-76
2021/12/30 03:10:18;;;;;;;7.65;2.40;;;11.90;99.90;;;;;;4955642;29;20035;-76
2021/12/30 03:12:44;;;;;;;6.07;3.67;;;11.80;99.90;;;;;;4955250;29;20027;-76
2021/12/30 03:15:12;;;;;;;16.83;4.22;;;11.60;99.90;;;;;;4955344;29;20035;-76
2021/12/30 03:17:39;;;;;;;6.45;3.10;;;11.40;99.90;;;;;;4937736;29;20043;-78
2021/12/30 03:20:09;;;;;;;17.60;5.70;;;11.30;99.90;;;;;;4955001;29;20047;-75
2021/12/30 03:22:37;;;;;;;16.27;8.98;;;11.20;99.90;;;;;;4954698;29;20039;-78
2021/12/30 03:25:05;;;;;;;31.70;20.65;;;11.10;99.90;;;;;;4954851;29;20039;-76
2021/12/30 03:27:32;;;;;;;40.17;26.27;;;10.90;99.90;;;;;;4954263;29;20031;-76
2021/12/30 03:29:58;;;;;;;414.38;366.20;;;10.90;99.90;;;;;;4955288;29;20457;-76
2021/12/30 03:32:24;;;;;;;32.67;26.17;;;10.90;99.90;;;;;;4954393;29;20035;-76
2021/12/30 03:34:50;;;;;;;23.55;15.15;;;11.10;99.90;;;;;;4955150;29;20031;-77
2021/12/30 03:37:17;;;;;;;28.75;21.20;;;11.40;99.90;;;;;;4937650;29;20253;-77
2021/12/30 03:39:44;;;;;;;27.02;20.35;;;11.60;99.90;;;;;;4954028;29;20480;-77
2021/12/30 03:42:11;;;;;;;101.20;67.05;;;11.80;99.90;;;;;;4937536;29;20042;-77
2021/12/30 03:44:37;;;;;;;77.22;63.08;;;11.80;99.90;;;;;;4954283;29;20039;-77
2021/12/30 03:47:03;;;;;;;125.15;89.40;;;11.70;99.90;;;;;;4954359;28;20034;-77
2021/12/30 03:49:29;;;;;;;100.28;76.50;;;11.70;99.90;;;;;;4933938;29;20055;-77
2021/12/30 03:51:55;;;;;;;72.45;43.40;;;11.70;99.90;;;;;;4935617;29;20032;-76
2021/12/30 03:54:21;;;;;;;43.20;30.70;;;11.70;99.90;;;;;;4935124;29;20024;-76
2021/12/30 03:56:48;;;;;;;151.57;111.53;;;11.80;99.90;;;;;;4935211;29;20047;-78
2021/12/30 03:59:15;;;;;;;82.93;52.78;;;11.70;99.90;;;;;;4935650;29;20047;-76
2021/12/30 04:01:41;;;;;;;61.97;39.38;;;11.80;99.90;;;;;;4934679;29;20393;-76
2021/12/30 04:04:07;;;;;;;39.95;29.98;;;11.80;99.90;;;;;;4935451;29;20458;-78
2021/12/30 04:06:34;;;;;;;65.40;49.58;;;11.80;99.90;;;;;;4934846;29;20457;-78
2021/12/30 04:09:00;;;;;;;89.43;65.18;;;11.80;99.90;;;;;;4935265;29;20497;-78
2021/12/30 04:11:33;;;;;;;74.97;50.28;;;11.80;99.90;;;;;;4934784;29;20036;-77
2021/12/30 04:14:02;;;;;;;12.45;9.18;;;11.80;99.90;;;;;;4935180;29;20028;-78
2021/12/30 04:16:28;;;;;;;96.13;81.65;;;11.80;99.90;;;;;;4934608;29;20063;-78
2021/12/30 04:18:54;;;;;;;25.42;13.70;;;11.90;99.90;;;;;;4935336;29;20032;-79
2021/12/30 04:21:21;;;;;;;47.22;32.20;;;12.00;99.90;;;;;;4935222;29;20382;-78
2021/12/30 04:23:47;;;;;;;54.33;43.08;;;11.90;99.90;;;;;;4934270;29;20059;-78
2021/12/30 04:26:14;;;;;;;10.52;6.53;;;11.90;99.90;;;;;;4934136;29;20039;-78
2021/12/30 04:28:40;;;;;;;5.97;2.95;;;11.90;99.90;;;;;;4934418;29;20393;-78
2021/12/30 04:31:06;;;;;;;40.10;31.95;;;11.80;99.90;;;;;;4934884;29;20036;-78
2021/12/30 04:33:33;;;;;;;15.05;7.25;;;11.80;99.90;;;;;;4933813;29;20063;-78
2021/12/30 04:35:59;;;;;;;18.13;11.40;;;11.80;99.90;;;;;;4934773;29;20055;-78
2021/12/30 04:38:28;;;;;;;9.73;5.63;;;11.80;99.90;;;;;;4934816;29;20035;-77
2021/12/30 04:40:55;;;;;;;4.10;1.90;;;11.80;99.90;;;;;;4933600;29;20044;-75
2021/12/30 04:43:22;;;;;;;4.20;2.22;;;11.80;99.90;;;;;;4934752;29;20101;-76
2021/12/30 04:45:48;;;;;;;4.25;2.20;;;11.80;99.90;;;;;;4934221;29;20035;-76
2021/12/30 04:48:16;;;;;;;12.93;4.15;;;11.80;99.90;;;;;;4934645;29;20043;-77
2021/12/30 04:50:45;;;;;;;6.35;2.72;;;11.80;99.90;;;;;;4950461;29;20059;-77
2021/12/30 04:53:16;;;;;;;20.33;18.33;;;11.80;99.90;;;;;;4954153;29;20031;-77
2021/12/30 04:55:43;;;;;;;8.75;5.32;;;11.70;99.90;;;;;;4953206;29;20388;-76
2021/12/30 04:58:09;;;;;;;24.52;21.85;;;11.70;99.90;;;;;;4954031;28;20047;-77
2021/12/30 05:00:35;;;;;;;7.00;5.55;;;11.70;99.90;;;;;;4957378;29;20045;-76
2021/12/30 05:03:10;;;;;;;9.57;6.45;;;11.60;99.90;;;;;;4957596;29;20035;-77
2021/12/30 05:05:51;;;;;;;24.33;21.50;;;11.60;99.90;;;;;;4957024;29;20042;-77
2021/12/30 05:08:19;;;;;;;;;;;11.60;99.90;;;;;;4941068;29;20046;-77
2021/12/30 05:10:45;;;;;;;15.90;13.40;;;11.60;99.90;;;;;;4957256;29;19906;-76
2021/12/30 05:13:12;;;;;;;32.03;26.15;;;11.60;99.90;;;;;;4956839;29;20400;-76
2021/12/30 05:15:39;;;;;;;28.98;23.80;;;11.60;99.90;;;;;;4956789;29;20393;-76
2021/12/30 05:18:08;;;;;;;33.08;28.05;;;11.60;99.90;;;;;;4957231;29;20099;-76
2021/12/30 05:20:35;;;;;;;34.40;24.83;;;11.70;99.90;;;;;;4956655;29;20058;-76
2021/12/30 05:23:04;;;;;;;33.17;26.20;;;11.70;99.90;;;;;;4957404;29;20389;-76
2021/12/30 05:25:30;;;;;;;39.25;32.03;;;11.80;99.90;;;;;;4956766;29;20035;-76
2021/12/30 05:27:57;;;;;;;13.25;11.38;;;11.90;99.90;;;;;;4957460;29;20038;-78
2021/12/30 05:30:24;;;;;;;7.25;4.38;;;11.90;99.90;;;;;;4957562;29;20038;-76
2021/12/30 05:32:52;;;;;;;7.38;6.03;;;12.00;99.90;;;;;;4956396;29;20038;-75
2021/12/30 05:35:19;;;;;;;14.82;8.57;;;12.10;99.90;;;;;;4939657;29;20039;-76
2021/12/30 05:37:45;;;;;;;2.85;2.35;;;12.10;99.90;;;;;;4956635;29;20499;-76
2021/12/30 05:40:19;;;;;;;6.00;3.85;;;12.10;99.90;;;;;;4956958;29;20363;-75
2021/12/30 05:42:46;;;;;;;2.47;2.28;;;12.10;99.90;;;;;;4956328;29;20046;-77
2021/12/30 05:45:17;;;;;;;2.97;2.42;;;12.10;99.90;;;;;;4958116;29;20058;-77
2021/12/30 05:47:48;;;;;;;4.78;3.53;;;12.20;99.90;;;;;;4960196;29;20031;-77
2021/12/30 05:50:17;;;;;;;2.58;1.35;;;12.20;99.90;;;;;;4962665;29;20416;-77
2021/12/30 05:52:44;;;;;;;1.30;1.20;;;12.20;99.90;;;;;;4958850;29;20034;-78
2021/12/30 05:55:11;;;;;;;2.88;1.55;;;12.20;99.90;;;;;;4957048;29;20035;-78
2021/12/30 05:57:38;;;;;;;1.88;1.48;;;12.30;99.90;;;;;;4955965;29;20035;-77
2021/12/30 06:00:06;;;;;;;8.18;7.45;;;12.30;99.90;;;;;;4956582;29;20046;-77
2021/12/30 06:02:33;;;;;;;6.97;3.45;;;12.30;99.90;;;;;;4956066;29;20610;-77
2021/12/30 06:04:59;;;;;;;1.98;1.27;;;12.40;99.90;;;;;;4956454;29;20031;-78
2021/12/30 06:07:25;;;;;;;1.58;0.82;;;12.40;99.90;;;;;;4956596;29;20039;-77
2021/12/30 06:09:51;;;;;;;0.52;0.40;;;12.40;99.90;;;;;;4938475;28;20047;-77
2021/12/30 06:12:17;;;;;;;2.85;2.47;;;12.40;99.90;;;;;;4956403;29;20373;-75
2021/12/30 06:14:44;;;;;;;16.98;13.50;;;12.40;99.90;;;;;;4956072;29;20480;-75
2021/12/30 06:17:13;;;;;;;2.33;1.05;;;12.40;99.90;;;;;;4956378;29;20047;-77
2021/12/30 06:19:39;;;;;;;1.67;1.58;;;12.50;99.90;;;;;;4955912;29;20038;-78
2021/12/30 06:22:06;;;;;;;8.23;7.47;;;12.50;99.90;;;;;;4956275;29;20031;-77
2021/12/30 06:24:33;;;;;;;8.55;6.68;;;12.50;99.90;;;;;;4955644;29;20445;-76
2021/12/30 06:26:59;;;;;;;1.90;1.25;;;12.50;99.90;;;;;;4956321;29;20066;-76
2021/12/30 06:29:25;;;;;;;0.93;0.52;;;12.50;99.90;;;;;;4956503;29;20038;-76
2021/12/30 06:31:51;;;;;;;1.92;0.70;;;12.60;99.90;;;;;;4955128;29;20058;-76
2021/12/30 06:34:17;;;;;;;0.55;0.40;;;12.60;99.90;;;;;;4956301;29;20031;-77
2021/12/30 06:36:44;;;;;;;1.13;0.47;;;12.60;99.90;;;;;;4955503;29;20112;-77
2021/12/30 06:39:10;;;;;;;2.00;1.55;;;12.70;99.90;;;;;;4955903;29;20042;-77
2021/12/30 06:41:36;;;;;;;1.05;0.60;;;12.60;99.90;;;;;;4955366;29;20035;-77
2021/12/30 06:44:02;;;;;;;2.55;0.60;;;12.60;99.90;;;;;;4955955;29;20027;-77
2021/12/30 06:46:29;;;;;;;1.65;0.45;;;12.60;99.90;;;;;;4956061;29;20039;-77
2021/12/30 06:48:55;;;;;;;1.42;0.80;;;12.60;99.90;;;;;;4955242;29;20047;-76
2021/12/30 06:51:23;;;;;;;0.60;0.47;;;12.60;99.90;;;;;;4956018;29;20465;-76
2021/12/30 06:53:54;;;;;;;0.32;0.30;;;12.50;99.90;;;;;;4955312;29;20038;-76
2021/12/30 06:56:21;;;;;;;;;;;12.60;99.90;;;;;;4956170;29;20393;-76
2021/12/30 06:58:47;;;;;;;1.48;0.77;;;12.50;99.90;;;;;;4954986;29;19915;-76
2021/12/30 07:01:14;;;;;;;1.00;0.82;;;12.50;99.90;;;;;;4955644;29;20457;-76
2021/12/30 07:03:40;;;;;;;3.17;1.88;;;12.50;99.90;;;;;;4955107;29;20039;-76
2021/12/30 07:06:07;;;;;;;6.75;6.15;;;12.50;99.90;;;;;;4955631;29;20039;-76
2021/12/30 07:08:34;;;;;;;1.38;1.05;;;12.60;99.90;;;;;;4955117;29;20038;-75
2021/12/30 07:11:01;;;;;;;2.50;1.05;;;12.50;99.90;;;;;;4955608;29;20046;-75
2021/12/30 07:13:27;;;;;;;1.15;0.85;;;12.50;99.90;;;;;;4955490;29;20043;-75
2021/12/30 07:15:53;;;;;;;3.30;2.78;;;12.50;99.90;;;;;;4954688;29;20288;-75
2021/12/30 07:18:19;;;;;;;2.63;2.08;;;12.50;99.90;;;;;;4955250;29;20473;-75
2021/12/30 07:20:45;;;;;;;3.40;3.10;;;12.40;99.90;;;;;;4954486;29;20054;-75
2021/12/30 07:23:12;;;;;;;1.67;1.20;;;12.40;99.90;;;;;;4954106;28;20384;-75
2021/12/30 07:25:38;;;;;;;3.38;3.17;;;12.50;99.90;;;;;;4954384;29;20038;-75
2021/12/30 07:28:05;;;;;;;1.77;0.80;;;12.50;99.90;;;;;;4954953;29;20511;-75
2021/12/30 07:30:31;;;;;;;6.97;1.20;;;12.50;99.90;;;;;;4955206;29;20042;-75
2021/12/30 07:32:57;;;;;;;1.50;1.05;;;12.50;99.90;;;;;;4955352;29;20488;-76
2021/12/30 07:35:25;;;;;;;1.60;1.02;;;12.50;99.90;;;;;;4954751;29;20039;-76
2021/12/30 07:37:52;;;;;;;0.80;0.70;;;12.60;99.90;;;;;;4954164;29;20043;-77
2021/12/30 07:40:19;;;;;;;1.15;0.52;;;12.70;99.90;;;;;;4954580;29;20047;-76
2021/12/30 07:42:45;;;;;;;1.05;0.40;;;12.90;99.90;;;;;;4954051;29;20031;-76
2021/12/30 07:45:12;;;;;;;0.52;0.38;;;12.90;99.90;;;;;;4954870;29;20027;-76
2021/12/30 07:47:39;;;;;;;0.63;0.50;;;13.10;99.90;;;;;;4953811;29;20027;-76
2021/12/30 07:50:06;;;;;;;0.82;0.40;;;13.20;99.90;;;;;;4954810;29;20078;-77
2021/12/30 07:52:34;;;;;;;1.02;0.57;;;13.30;99.90;;;;;;4954402;29;20035;-76
2021/12/30 07:55:01;;;;;;;0.35;0.30;;;13.30;99.90;;;;;;4954294;29;20047;-76
2021/12/30 07:57:27;;;;;;;0.38;0.30;;;13.30;99.90;;;;;;4954431;29;20035;-76
2021/12/30 07:59:53;;;;;;;0.20;0.20;;;13.30;99.90;;;;;;4953831;29;20544;-75
2021/12/30 08:02:20;;;;;;;0.40;0.30;;;13.30;99.90;;;;;;4953394;29;20050;-78
2021/12/30 08:04:47;;;;;;;0.57;0.40;;;13.40;99.90;;;;;;4953721;29;20038;-76
2021/12/30 08:07:15;;;;;;;0.75;0.40;;;13.40;99.90;;;;;;4954679;29;20362;-77
2021/12/30 08:09:41;;;;;;;0.45;0.30;;;13.50;99.90;;;;;;4953988;29;20039;-76
2021/12/30 08:12:08;;;;;;;0.68;0.30;;;13.50;99.90;;;;;;4954209;29;20035;-77
2021/12/30 08:14:34;;;;;;;0.85;0.55;;;13.50;99.90;;;;;;4954231;29;20054;-78
2021/12/30 08:17:00;;;;;;;1.55;0.63;;;13.50;99.90;;;;;;4953707;29;20051;-76
2021/12/30 08:19:26;;;;;;;1.15;0.55;;;13.50;99.90;;;;;;4954400;29;20472;-77
2021/12/30 08:21:52;;;;;;;0.50;0.40;;;13.50;99.90;;;;;;4953578;29;20031;-77
2021/12/30 08:24:18;;;;;;;1.23;0.70;;;13.60;99.90;;;;;;4954538;29;20035;-76
2021/12/30 08:26:45;;;;;;;1.25;0.63;;;13.60;99.90;;;;;;4953742;29;20043;-76
2021/12/30 08:29:11;;;;;;;1.00;0.55;;;13.60;99.90;;;;;;4954275;29;20031;-76
2021/12/30 08:31:37;;;;;;;2.47;0.50;;;13.60;99.90;;;;;;4954046;29;20058;-76
2021/12/30 08:34:04;;;;;;;1.92;0.70;;;13.60;99.90;;;;;;4953600;29;20046;-76
2021/12/30 08:36:34;;;;;;;0.80;0.60;;;13.60;99.90;;;;;;4954054;29;20396;-76
2021/12/30 08:39:00;;;;;;;0.40;0.40;;;13.60;99.90;;;;;;4953400;29;20035;-72
2021/12/30 08:41:27;;;;;;;1.00;0.60;;;13.60;99.90;;;;;;4954198;29;20036;-72
2021/12/30 08:43:53;;;;;;;2.40;0.60;;;13.60;99.90;;;;;;4953260;29;20043;-72
2021/12/30 08:46:19;;;;;;;2.35;0.60;;;13.70;99.90;;;;;;4953371;29;20058;-72
2021/12/30 08:48:46;;;;;;;1.27;0.60;;;13.70;99.90;;;;;;4953096;29;20486;-72
2021/12/30 08:51:12;;;;;;;1.98;1.75;;;13.70;99.90;;;;;;4953921;29;20031;-72
2021/12/30 08:53:40;;;;;;;7.32;5.53;;;13.70;99.90;;;;;;4954148;29;20034;-72
2021/12/30 08:56:08;;;;;;;4.95;3.50;;;13.60;99.90;;;;;;4953345;29;20469;-73
2021/12/30 08:58:35;;;;;;;3.83;2.80;;;13.60;99.90;;;;;;4953220;29;20059;-72
2021/12/30 09:01:02;;;;;;;4.38;3.50;;;13.60;99.90;;;;;;4952924;29;20488;-73
2021/12/30 09:03:28;;;;;;;5.63;2.72;;;13.60;99.90;;;;;;4953888;29;20042;-72
2021/12/30 09:05:55;;;;;;;4.57;4.18;;;13.70;99.90;;;;;;4952848;29;20035;-73
2021/12/30 09:08:21;;;;;;;7.20;5.32;;;13.70;99.90;;;;;;4953301;29;20042;-73
2021/12/30 09:10:49;;;;;;;3.03;2.83;;;13.70;99.90;;;;;;4953338;29;20042;-73
2021/12/30 09:13:18;;;;;;;2.05;1.52;;;13.70;99.90;;;;;;4953850;29;20042;-73
2021/12/30 09:15:46;;;;;;;1.30;0.90;;;13.80;99.90;;;;;;4937873;29;20389;-73
2021/12/30 09:18:13;;;;;;;2.65;2.45;;;13.80;99.90;;;;;;4934319;29;20035;-72
2021/12/30 09:20:42;;;;;;;1.50;1.20;;;13.90;99.90;;;;;;4934688;29;20048;-73
2021/12/30 09:23:09;;;;;;;1.45;1.20;;;14.00;99.90;;;;;;4934775;29;20035;-73
2021/12/30 09:25:37;;;;;;;1.45;1.08;;;14.00;99.90;;;;;;4934517;29;20386;-72
2021/12/30 09:28:04;;;;;;;1.02;0.68;;;14.10;99.90;;;;;;4916771;29;20044;-73
2021/12/30 09:30:30;;;;;;;0.90;0.68;;;14.20;99.90;;;;;;4934393;29;20028;-73
2021/12/30 09:33:00;;;;;;;0.90;0.60;;;14.10;99.90;;;;;;4933607;29;20051;-73
2021/12/30 09:35:27;;;;;;;0.93;0.70;;;14.20;99.90;;;;;;4934563;29;20036;-73
2021/12/30 09:37:54;;;;;;;0.82;0.45;;;14.20;99.90;;;;;;4933579;29;20031;-73
2021/12/30 09:40:20;;;;;;;0.63;0.63;;;14.20;99.90;;;;;;4934479;29;20032;-73
2021/12/30 09:42:51;;;;;;;1.13;1.02;;;14.30;99.90;;;;;;4933613;29;20031;-73
2021/12/30 09:45:18;;;;;;;11.52;1.35;;;14.30;99.90;;;;;;4934888;29;20032;-73
2021/12/30 09:47:52;;;;;;;0.85;0.70;;;14.40;99.90;;;;;;4937039;29;20043;-73
2021/12/30 09:50:21;;;;;;;6.13;1.15;;;14.30;99.90;;;;;;4917601;29;20075;-73
2021/12/30 09:52:47;;;;;;;5.07;1.75;;;14.30;99.90;;;;;;4918048;29;20036;-73
2021/12/30 09:55:14;;;;;;;5.20;4.78;;;14.30;99.90;;;;;;4918815;29;20044;-73
2021/12/30 09:57:41;;;;;;;7.03;4.50;;;14.30;99.90;;;;;;4919701;29;20040;-73
2021/12/30 10:00:11;;;;;;;2.08;1.77;;;14.40;99.90;;;;;;4918300;29;20047;-73
2021/12/30 10:02:41;;;;;;;2.83;2.38;;;14.40;99.90;;;;;;4919136;29;20044;-73
2021/12/30 10:05:11;;;;;;;4.22;3.58;;;14.40;99.90;;;;;;4918032;29;20043;-73
2021/12/30 10:07:39;;;;;;;1.10;0.90;;;14.40;99.90;;;;;;4918532;29;20048;-73
2021/12/30 10:10:32;;;;;;;0.65;0.40;;;14.40;99.90;;;;;;4916525;29;20036;-76
2021/12/30 10:13:00;;;;;;;0.52;0.40;;;14.30;99.90;;;;;;4917942;29;20036;-73
2021/12/30 10:15:39;;;;;;;0.20;0.20;;;14.40;99.90;;;;;;4918471;29;20047;-73
2021/12/30 10:18:05;;;;;;;0.73;0.30;;;14.40;99.90;;;;;;4918762;29;20114;-73
2021/12/30 10:20:32;;;;;;;0.50;0.40;;;14.40;99.90;;;;;;4919600;29;20060;-73
2021/12/30 10:23:15;;;;;;;1.30;0.73;;;14.40;99.90;;;;;;4929856;29;20038;-73
2021/12/30 10:25:50;;;;;;;0.52;0.40;;;14.50;99.90;;;;;;4938084;29;20039;-76
2021/12/30 10:28:20;;;;;;;4.75;4.30;;;14.50;99.90;;;;;;4937164;29;20035;-76
2021/12/30 10:30:47;;;;;;;1.38;0.70;;;14.50;99.90;;;;;;4936489;29;20039;-75
2021/12/30 10:33:18;;;;;;;2.20;0.82;;;14.50;99.90;;;;;;4936994;29;20031;-75
2021/12/30 10:35:45;;;;;;;0.57;0.40;;;14.50;99.90;;;;;;4936928;29;20039;-76
2021/12/30 10:38:12;;;;;;;1.05;0.85;;;14.50;99.90;;;;;;4936835;29;20393;-74
2021/12/30 10:40:44;;;;;;;0.98;0.70;;;14.70;99.90;;;;;;4936880;29;20035;-75
2021/12/30 10:43:24;;;;;;;0.52;0.32;;;14.60;99.90;;;;;;4936201;29;20036;-73
2021/12/30 10:46:12;;;;;;;0.30;0.28;;;14.60;99.90;;;;;;4936628;29;20032;-75
2021/12/30 10:49:05;;;;;;;1.70;0.57;;;14.70;99.90;;;;;;4936163;29;20040;-75
2021/12/30 10:51:34;;;;;;;0.88;0.50;;;14.80;99.90;;;;;;4947894;29;20051;-76
2021/12/30 10:54:13;;;;;;;0.30;0.30;;;14.70;99.90;;;;;;4954778;29;20389;-76
2021/12/30 10:57:01;;;;;;;0.30;0.30;;;14.70;99.90;;;;;;4955131;28;20035;-75
2021/12/30 10:59:29;;;;;;;1.15;0.40;;;14.70;99.90;;;;;;4954536;29;20051;-76
2021/12/30 11:02:01;;;;;;;0.30;0.22;;;14.70;99.90;;;;;;4954580;29;20057;-75
2021/12/30 11:04:39;;;;;;;1.30;1.20;;;14.70;99.90;;;;;;4955445;29;20043;-76
2021/12/30 11:07:08;;;;;;;1.52;0.77;;;14.70;99.90;;;;;;4954508;29;20039;-75
2021/12/30 11:09:35;;;;;;;0.60;0.60;;;14.70;99.90;;;;;;4942250;29;20036;-76
2021/12/30 11:12:04;;;;;;;1.23;0.80;;;14.80;99.90;;;;;;4935185;29;20031;-75
2021/12/30 11:14:35;;;;;;;1.25;0.80;;;14.80;99.90;;;;;;4936179;29;20042;-75
2021/12/30 11:17:04;;;;;;;1.75;1.40;;;14.70;99.90;;;;;;4940073;29;20031;-75
2021/12/30 11:19:37;;;;;;;0.63;0.60;;;14.80;99.90;;;;;;4945308;29;20035;-75
2021/12/30 11:22:06;;;;;;;0.63;0.60;;;14.80;99.90;;;;;;4954403;29;20381;-75
2021/12/30 11:24:33;;;;;;;1.17;0.80;;;14.70;99.90;;;;;;4937119;29;20044;-74
2021/12/30 11:27:03;;;;;;;1.10;0.77;;;14.80;99.90;;;;;;4934707;29;20042;-74
2021/12/30 11:29:30;;;;;;;1.47;0.90;;;14.80;99.90;;;;;;4935636;29;20031;-74
2021/12/30 11:31:57;;;;;;;2.22;2.13;;;14.80;99.90;;;;;;4934597;29;20039;-74
2021/12/30 11:34:24;;;;;;;1.08;0.70;;;14.80;99.90;;;;;;4935735;29;20414;-74
2021/12/30 11:36:52;;;;;;;4.35;3.63;;;14.80;99.90;;;;;;4935306;29;20035;-73
2021/12/30 11:39:21;;;;;;;1.45;1.10;;;14.80;99.90;;;;;;4935415;29;20047;-75
2021/12/30 11:42:05;;;;;;;0.63;0.40;;;14.80;99.90;;;;;;4931533;29;20046;-74
2021/12/30 11:44:41;;;;;;;0.85;0.50;;;14.90;99.90;;;;;;4937055;29;20050;-74
2021/12/30 11:47:36;;;;;;;0.70;0.50;;;14.90;99.90;;;;;;4953763;29;20493;-74
2021/12/30 11:50:11;;;;;;;3.78;0.88;;;14.90;99.90;;;;;;4953620;29;20426;-74
2021/12/30 11:52:59;;;;;;;1.55;0.70;;;14.90;99.90;;;;;;4954293;29;20046;-75
2021/12/30 11:55:47;;;;;;;0.75;0.55;;;14.90;99.90;;;;;;4954526;29;20046;-74
2021/12/30 12:01:13;;;;;;;1.42;0.98;;;14.90;99.90;;;;;;4953695;29;20043;-73
2021/12/30 12:03:54;;;;;;;2.80;1.08;;;14.90;99.90;;;;;;4953943;29;20043;-75
2021/12/30 12:06:52;;;;;;;1.45;1.10;;;14.90;99.90;;;;;;4954257;29;20035;-74
2021/12/30 12:09:25;;;;;;;2.03;1.20;;;14.90;99.90;;;;;;4953169;28;20031;-75
2021/12/30 12:11:57;;;;;;;1.05;0.77;;;14.80;99.90;;;;;;4953692;29;20035;-74
2021/12/30 12:14:50;;;;;;;2.13;0.90;;;14.80;99.90;;;;;;4953895;29;20396;-74
2021/12/30 12:17:35;;;;;;;2.75;0.95;;;14.80;99.90;;;;;;4943953;29;20062;-74
2021/12/30 12:20:21;;;;;;;0.85;0.50;;;14.70;99.90;;;;;;4951233;29;20401;-74
2021/12/30 12:22:47;;;;;;;2.05;0.70;;;14.70;99.90;;;;;;4949947;29;20047;-74
2021/12/30 12:25:16;;;;;;;1.33;0.70;;;14.70;99.90;;;;;;4952863;29;20048;-74
2021/12/30 12:27:49;;;;;;;0.80;0.60;;;14.70;99.90;;;;;;4953910;29;20035;-74
2021/12/30 12:30:33;;;;;;;1.75;0.88;;;14.70;99.90;;;;;;4953295;29;20039;-73
2021/12/30 12:33:20;;;;;;;0.80;0.50;;;14.70;99.90;;;;;;4952169;29;20392;-74
2021/12/30 12:35:46;;;;;;;1.83;0.57;;;14.60;99.90;;;;;;4935920;29;20138;-74
2021/12/30 12:38:12;;;;;;;1.25;0.90;;;14.60;99.90;;;;;;4952646;29;20217;-73
2021/12/30 12:40:44;;;;;;;1.30;0.80;;;14.60;99.90;;;;;;4953348;29;20043;-73
2021/12/30 12:43:13;;;;;;;1.08;0.88;;;14.60;99.90;;;;;;4953212;29;20488;-74
2021/12/30 12:45:52;;;;;;;1.13;1.00;;;14.50;99.90;;;;;;4953141;29;20125;-73
2021/12/30 12:48:20;;;;;;;3.42;1.70;;;14.50;99.90;;;;;;4953138;29;20479;-75
2021/12/30 12:50:54;;;;;;;27.88;21.60;;;14.50;99.90;;;;;;4954013;29;20051;-74
2021/12/30 12:53:24;;;;;;;7.75;7.03;;;14.40;99.90;;;;;;4935972;29;20054;-75
2021/12/30 12:55:56;;;;;;;45.40;37.92;;;14.40;99.90;;;;;;4953559;29;20143;-75